createdAt,value
2022-12-26T00:01:20.234Z,63.84
2022-12-26T00:03:46.648Z,64.01
2022-12-26T00:06:17.944Z,64.18
2022-12-26T00:08:44.728Z,64.82
2022-12-26T00:11:11.835Z,64.35
2022-12-26T00:13:41.698Z,63.56
2022-12-26T00:16:12.675Z,63.53
2022-12-26T00:18:39.272Z,64.63
2022-12-26T00:21:09.710Z,63.83
2022-12-26T00:23:36.746Z,65.03
2022-12-26T00:26:07.456Z,66.34
2022-12-26T00:28:33.971Z,64.55
2022-12-26T00:31:03.628Z,63.62
2022-12-26T00:33:29.919Z,63.96
2022-12-26T00:36:00.664Z,64.63
2022-12-26T00:38:26.996Z,64.96
2022-12-26T00:40:53.320Z,64.44
2022-12-26T00:43:19.652Z,64.79
2022-12-26T00:45:47.925Z,65.00
2022-12-26T00:48:14.326Z,64.89
2022-12-26T00:50:40.679Z,63.81
2022-12-26T00:53:07.794Z,64.53
2022-12-26T00:55:34.315Z,65.60
2022-12-26T00:58:01.433Z,65.79
2022-12-26T01:00:28.692Z,67.29
2022-12-26T01:02:55.327Z,66.84
2022-12-26T01:05:22.429Z,64.83
2022-12-26T01:08:21.086Z,64.73
2022-12-26T01:10:35.153Z,65.25
2022-12-26T01:13:02.143Z,66.54
2022-12-26T01:15:28.602Z,66.69
2022-12-26T01:17:54.920Z,66.89
2022-12-26T01:20:21.974Z,66.52
2022-12-26T01:22:48.334Z,66.53
2022-12-26T01:25:14.617Z,67.42
2022-12-26T01:27:40.968Z,68.46
2022-12-26T01:30:07.742Z,66.97
2022-12-26T01:32:34.057Z,66.72
2022-12-26T01:35:01.347Z,66.77
2022-12-26T01:37:28.694Z,68.45
2022-12-26T01:39:56.285Z,68.41
2022-12-26T01:42:24.080Z,72.87
2022-12-26T01:44:59.527Z,70.34
2022-12-26T01:47:34.398Z,69.76
2022-12-26T01:50:00.844Z,69.36
2022-12-26T01:52:35.338Z,67.22
2022-12-26T01:55:03.688Z,70.11
2022-12-26T01:57:33.346Z,68.19
2022-12-26T02:00:01.526Z,68.10
2022-12-26T02:02:29.578Z,67.64
2022-12-26T02:05:16.164Z,68.77
2022-12-26T02:07:45.044Z,67.61
2022-12-26T02:10:14.283Z,67.43
2022-12-26T02:12:41.135Z,68.44
2022-12-26T02:15:08.974Z,67.48
2022-12-26T02:17:36.099Z,67.12
2022-12-26T02:20:05.426Z,68.63
2022-12-26T02:22:47.107Z,68.44
2022-12-26T02:25:16.394Z,71.24
2022-12-26T02:28:09.625Z,70.36
2022-12-26T02:30:39.762Z,69.19
2022-12-26T02:33:14.693Z,71.58
2022-12-26T02:35:59.901Z,70.47
2022-12-26T02:38:26.161Z,74.37
2022-12-26T02:40:56.613Z,76.27
2022-12-26T02:43:29.265Z,72.25
2022-12-26T02:46:21.847Z,73.44
2022-12-26T02:49:00.344Z,71.45
2022-12-26T02:51:55.152Z,70.62
2022-12-26T02:54:53.593Z,70.30
2022-12-26T02:57:40.414Z,70.93
2022-12-26T03:00:29.917Z,71.16
2022-12-26T03:03:20.908Z,71.92
2022-12-26T03:06:12.672Z,71.60
2022-12-26T03:09:09.856Z,70.85
2022-12-26T03:11:59.606Z,71.09
2022-12-26T03:14:35.989Z,71.89
2022-12-26T03:17:20.130Z,80.41
2022-12-26T03:19:59.593Z,75.57
2022-12-26T03:22:31.370Z,74.70
2022-12-26T03:25:18.338Z,75.29
2022-12-26T03:27:44.770Z,72.33
2022-12-26T03:30:29.625Z,71.78
2022-12-26T03:32:57.217Z,73.11
2022-12-26T03:35:24.027Z,70.14
2022-12-26T03:37:56.144Z,72.25
2022-12-26T03:40:44.739Z,72.27
2022-12-26T03:43:35.845Z,71.96
2022-12-26T03:46:20.926Z,71.05
2022-12-26T03:49:14.313Z,70.36
2022-12-26T03:51:59.048Z,70.77
2022-12-26T03:54:50.677Z,72.24
2022-12-26T03:57:37.258Z,69.76
2022-12-26T04:00:29.673Z,72.23
2022-12-26T04:03:17.884Z,72.08
2022-12-26T04:06:04.077Z,72.96
2022-12-26T04:08:53.043Z,70.13
2022-12-26T04:11:39.371Z,69.70
2022-12-26T04:14:24.185Z,69.68
2022-12-26T04:17:12.129Z,69.56
2022-12-26T04:19:44.423Z,69.77
2022-12-26T04:22:46.856Z,68.61
2022-12-26T04:25:50.379Z,69.18
2022-12-26T04:28:37.283Z,69.64
2022-12-26T04:31:25.838Z,69.20
2022-12-26T04:34:12.604Z,69.50
2022-12-26T04:37:14.702Z,68.43
2022-12-26T04:40:02.728Z,69.08
2022-12-26T04:42:48.900Z,70.02
2022-12-26T04:45:15.626Z,69.99
2022-12-26T04:48:01.883Z,69.40
2022-12-26T04:50:28.277Z,68.69
2022-12-26T04:53:01.178Z,68.45
2022-12-26T04:55:29.015Z,68.80
2022-12-26T04:57:55.500Z,69.86
2022-12-26T05:00:24.048Z,69.99
2022-12-26T05:03:14.577Z,69.80
2022-12-26T05:06:14.916Z,71.73
2022-12-26T05:09:00.686Z,71.38
2022-12-26T05:11:27.489Z,72.56
2022-12-26T05:13:54.454Z,71.28
2022-12-26T05:16:39.559Z,71.65
2022-12-26T05:19:24.877Z,70.88
2022-12-26T05:22:10.049Z,70.57
2022-12-26T05:24:57.581Z,70.63
2022-12-26T05:27:42.972Z,72.59
2022-12-26T05:30:09.807Z,69.86
2022-12-26T05:32:54.931Z,70.92
2022-12-26T05:35:21.246Z,71.92
2022-12-26T05:37:47.580Z,69.91
2022-12-26T05:40:13.963Z,70.61
2022-12-26T05:42:40.331Z,70.76
2022-12-26T05:45:06.910Z,70.88
2022-12-26T05:47:33.315Z,70.51
2022-12-26T05:49:59.929Z,73.70
2022-12-26T05:52:26.251Z,73.66
2022-12-26T05:54:52.595Z,73.21
2022-12-26T05:57:19.001Z,74.68
2022-12-26T05:59:45.339Z,72.46
2022-12-26T06:02:11.835Z,72.46
2022-12-26T06:04:38.352Z,71.93
2022-12-26T06:07:04.712Z,73.34
2022-12-26T06:09:31.238Z,72.72
2022-12-26T06:11:57.533Z,71.53
2022-12-26T06:14:24.080Z,72.94
2022-12-26T06:16:50.450Z,71.92
2022-12-26T06:19:17.035Z,71.01
2022-12-26T06:21:43.385Z,72.11
2022-12-26T06:24:09.685Z,74.47
2022-12-26T06:26:36.155Z,71.19
2022-12-26T06:29:02.469Z,73.49
2022-12-26T06:31:28.834Z,71.66
2022-12-26T06:33:56.369Z,71.64
2022-12-26T06:36:23.775Z,73.97
2022-12-26T06:38:50.133Z,74.58
2022-12-26T06:41:17.663Z,75.94
2022-12-26T06:43:44.143Z,77.19
2022-12-26T06:46:12.567Z,77.57
2022-12-26T06:48:41.905Z,74.31
2022-12-26T06:51:10.963Z,77.82
2022-12-26T06:53:37.332Z,75.87
2022-12-26T06:56:08.264Z,76.65
2022-12-26T06:58:34.586Z,75.64
2022-12-26T07:01:05.004Z,77.12
2022-12-26T07:03:31.366Z,79.28
2022-12-26T07:06:01.608Z,81.37
2022-12-26T07:08:27.911Z,78.30
2022-12-26T07:10:54.195Z,83.49
2022-12-26T07:13:20.497Z,81.16
2022-12-26T07:15:46.804Z,81.36
2022-12-26T07:18:13.113Z,80.17
2022-12-26T07:20:39.479Z,78.86
2022-12-26T07:23:05.822Z,77.88
2022-12-26T07:25:32.263Z,79.12
2022-12-26T07:28:00.440Z,80.64
2022-12-26T07:30:26.788Z,79.97
2022-12-26T07:32:53.080Z,77.75
2022-12-26T07:35:19.618Z,81.55
2022-12-26T07:37:45.944Z,78.88
2022-12-26T07:40:12.625Z,83.78
2022-12-26T07:42:38.956Z,84.13
2022-12-26T07:45:05.507Z,81.00
2022-12-26T07:47:31.800Z,77.97
2022-12-26T07:49:58.125Z,77.58
2022-12-26T07:52:24.561Z,77.18
2022-12-26T07:54:50.917Z,78.48
2022-12-26T07:57:46.847Z,76.36
2022-12-26T08:00:04.871Z,81.03
2022-12-26T08:02:31.418Z,81.69
2022-12-26T08:04:57.855Z,80.79
2022-12-26T08:07:24.206Z,76.66
2022-12-26T08:09:50.597Z,79.52
2022-12-26T08:12:17.329Z,83.68
2022-12-26T08:14:43.631Z,77.48
2022-12-26T08:17:10.089Z,78.76
2022-12-26T08:19:36.473Z,80.13
2022-12-26T08:22:02.789Z,77.92
2022-12-26T08:24:29.221Z,75.52
2022-12-26T08:26:55.510Z,79.49
2022-12-26T08:29:21.864Z,80.92
2022-12-26T08:31:48.166Z,81.80
2022-12-26T08:34:14.539Z,80.42
2022-12-26T08:36:40.870Z,79.44
2022-12-26T08:39:07.782Z,81.49
2022-12-26T08:41:34.088Z,85.88
2022-12-26T08:46:46.756Z,81.42
2022-12-26T08:49:13.243Z,79.32
2022-12-26T08:51:39.613Z,78.14
2022-12-26T08:54:06.494Z,79.39
2022-12-26T08:56:32.937Z,81.65
2022-12-26T08:58:59.435Z,81.36
2022-12-26T09:01:27.229Z,79.26
2022-12-26T09:03:54.712Z,77.39
2022-12-26T09:06:21.515Z,78.04
2022-12-26T09:08:48.086Z,76.58
2022-12-26T09:11:15.696Z,78.28
2022-12-26T09:13:42.779Z,77.00
2022-12-26T09:16:13.374Z,78.62
2022-12-26T09:18:40.087Z,82.34
2022-12-26T09:21:08.324Z,80.19
2022-12-26T09:23:35.566Z,80.13
2022-12-26T09:26:05.271Z,78.66
2022-12-26T09:28:31.553Z,77.95
2022-12-26T09:31:05.509Z,77.58
2022-12-26T09:33:33.407Z,77.26
2022-12-26T09:36:04.500Z,76.21
2022-12-26T09:38:32.614Z,78.06
2022-12-26T09:41:02.015Z,82.60
2022-12-26T09:43:50.189Z,79.17
2022-12-26T09:46:21.679Z,84.36
2022-12-26T09:49:10.923Z,80.10
2022-12-26T09:51:39.879Z,81.28
2022-12-26T09:54:08.304Z,80.25
2022-12-26T09:57:01.901Z,85.26
2022-12-26T09:59:26.100Z,85.64
2022-12-26T10:01:53.441Z,81.90
2022-12-26T10:04:29.992Z,83.91
2022-12-26T10:07:05.826Z,81.59
2022-12-26T10:09:44.594Z,82.17
2022-12-26T10:12:29.803Z,84.80
2022-12-26T10:14:59.182Z,82.69
2022-12-26T10:17:36.742Z,79.90
2022-12-26T10:20:06.947Z,80.76
2022-12-26T10:22:40.081Z,78.59
2022-12-26T10:25:14.915Z,83.02
2022-12-26T10:27:43.874Z,81.80
2022-12-26T10:30:15.433Z,81.33
2022-12-26T10:32:43.901Z,81.74
2022-12-26T10:35:20.435Z,83.93
2022-12-26T10:37:48.212Z,80.04
2022-12-26T10:40:23.180Z,77.79
2022-12-26T10:42:57.186Z,77.78
2022-12-26T10:45:43.380Z,78.66
2022-12-26T10:48:13.100Z,77.64
2022-12-26T10:50:40.275Z,79.66
2022-12-26T10:53:07.608Z,76.85
2022-12-26T10:55:35.443Z,76.30
2022-12-26T10:58:09.321Z,80.22
2022-12-26T11:00:35.721Z,81.61
2022-12-26T11:03:06.976Z,78.70
2022-12-26T11:08:27.643Z,79.90
2022-12-26T11:11:03.360Z,77.67
2022-12-26T11:13:32.022Z,77.10
2022-12-26T11:15:58.405Z,74.98
2022-12-26T11:18:33.658Z,76.42
2022-12-26T11:21:17.978Z,78.42
2022-12-26T11:23:45.082Z,78.21
2022-12-26T11:26:20.352Z,78.79
2022-12-26T11:28:46.676Z,80.70
2022-12-26T11:31:26.639Z,78.91
2022-12-26T11:33:53.160Z,79.78
2022-12-26T11:36:22.307Z,79.30
2022-12-26T11:38:56.553Z,77.57
2022-12-26T11:41:32.016Z,76.15
2022-12-26T11:44:01.653Z,77.63
2022-12-26T11:46:42.132Z,76.65
2022-12-26T11:49:24.893Z,77.98
2022-12-26T11:51:55.623Z,76.92
2022-12-26T11:54:29.889Z,75.73
2022-12-26T11:57:00.823Z,76.71
2022-12-26T11:59:27.653Z,76.24
2022-12-26T12:02:12.921Z,75.90
2022-12-26T12:04:39.314Z,74.31
2022-12-26T12:07:13.583Z,73.63
2022-12-26T12:09:39.857Z,70.58
2022-12-26T12:12:20.186Z,72.51
2022-12-26T12:14:55.147Z,75.83
2022-12-26T12:17:21.835Z,74.76
2022-12-26T12:19:54.285Z,77.46
2022-12-26T12:22:34.612Z,77.42
2022-12-26T12:25:03.679Z,79.68
2022-12-26T12:27:32.940Z,77.83
2022-12-26T12:30:16.933Z,77.21
2022-12-26T12:32:56.729Z,75.07
2022-12-26T12:35:26.784Z,76.04
2022-12-26T12:38:11.860Z,73.90
2022-12-26T12:40:38.195Z,80.48
2022-12-26T12:43:22.798Z,82.34
2022-12-26T12:45:58.912Z,82.56
2022-12-26T12:48:37.142Z,80.35
2022-12-26T12:51:03.443Z,77.59
2022-12-26T12:53:52.259Z,80.07
2022-12-26T12:56:37.015Z,79.45
2022-12-26T12:59:06.459Z,79.98
2022-12-26T13:01:45.122Z,79.13
2022-12-26T13:04:27.313Z,78.37
2022-12-26T13:06:56.666Z,75.76
2022-12-26T13:09:26.125Z,76.17
2022-12-26T13:11:52.414Z,77.01
2022-12-26T13:14:37.594Z,78.54
2022-12-26T13:17:13.130Z,79.16
2022-12-26T13:19:52.674Z,77.71
2022-12-26T13:22:50.033Z,76.46
2022-12-26T13:25:18.272Z,80.13
2022-12-26T13:27:46.850Z,84.46
2022-12-26T13:30:15.650Z,78.97
2022-12-26T13:32:46.787Z,78.47
2022-12-26T13:35:31.928Z,77.30
2022-12-26T13:38:04.183Z,76.65
2022-12-26T13:40:31.577Z,75.29
2022-12-26T13:43:25.916Z,75.63
2022-12-26T13:45:54.868Z,70.17
2022-12-26T13:48:21.300Z,68.49
2022-12-26T13:50:56.117Z,70.98
2022-12-26T13:53:26.064Z,69.49
2022-12-26T13:55:54.291Z,70.86
2022-12-26T13:58:26.670Z,73.99
2022-12-26T14:00:56.264Z,74.29
2022-12-26T14:03:45.962Z,74.06
2022-12-26T14:06:41.983Z,74.23
2022-12-26T14:09:28.555Z,76.51
2022-12-26T14:12:13.589Z,79.41
2022-12-26T14:14:54.619Z,77.85
2022-12-26T14:17:33.336Z,75.41
2022-12-26T14:20:14.478Z,75.15
2022-12-26T14:22:59.692Z,76.27
2022-12-26T14:25:29.857Z,72.10
2022-12-26T14:28:10.751Z,73.27
2022-12-26T14:30:50.736Z,78.53
2022-12-26T14:33:25.709Z,78.47
2022-12-26T14:35:51.981Z,76.99
2022-12-26T14:38:37.066Z,72.82
2022-12-26T14:41:06.301Z,78.56
2022-12-26T14:43:34.852Z,79.57
2022-12-26T14:46:02.250Z,86.97
2022-12-26T14:48:28.612Z,90.41
2022-12-26T14:51:15.341Z,87.49
2022-12-26T14:53:43.163Z,89.16
2022-12-26T14:56:15.404Z,89.65
2022-12-26T14:58:41.901Z,87.09
2022-12-26T15:01:20.650Z,88.00
2022-12-26T15:03:53.359Z,88.83
2022-12-26T15:06:19.941Z,92.66
2022-12-26T15:08:49.696Z,94.45
2022-12-26T15:11:34.876Z,91.00
2022-12-26T15:14:26.385Z,86.66
2022-12-26T15:16:59.655Z,87.89
2022-12-26T15:19:45.264Z,88.26
2022-12-26T15:22:39.941Z,88.91
2022-12-26T15:25:25.474Z,84.64
2022-12-26T15:27:58.024Z,92.82
2022-12-26T15:30:24.309Z,85.37
2022-12-26T15:33:01.395Z,81.87
2022-12-26T15:35:30.407Z,84.41
2022-12-26T15:38:15.632Z,81.52
2022-12-26T15:40:51.425Z,78.59
2022-12-26T15:43:36.653Z,77.60
2022-12-26T15:46:24.448Z,80.88
2022-12-26T15:49:04.543Z,82.08
2022-12-26T15:51:37.035Z,77.83
2022-12-26T15:54:22.163Z,76.69
2022-12-26T15:56:52.114Z,78.57
2022-12-26T15:59:24.770Z,77.72
2022-12-26T16:01:54.007Z,75.30
2022-12-26T16:04:39.417Z,73.49
2022-12-26T16:07:20.634Z,71.17
2022-12-26T16:09:52.918Z,71.25
2022-12-26T16:12:24.753Z,72.65
2022-12-26T16:15:00.556Z,72.03
2022-12-26T16:17:28.006Z,73.50
2022-12-26T16:19:54.555Z,74.06
2022-12-26T16:23:05.591Z,75.36
2022-12-26T16:25:33.000Z,73.62
2022-12-26T16:28:01.751Z,70.69
2022-12-26T16:30:39.890Z,71.95
2022-12-26T16:33:06.877Z,72.37
2022-12-26T16:35:34.696Z,73.12
2022-12-26T16:38:02.860Z,70.29
2022-12-26T16:40:29.415Z,68.95
2022-12-26T16:42:58.019Z,70.89
2022-12-26T16:45:25.147Z,71.38
2022-12-26T16:47:52.743Z,70.97
2022-12-26T16:50:24.219Z,70.25
2022-12-26T16:53:02.830Z,68.20
2022-12-26T16:55:41.974Z,68.21
2022-12-26T16:58:13.798Z,69.40
2022-12-26T17:00:45.247Z,73.37
2022-12-26T17:03:24.912Z,71.63
2022-12-26T17:05:51.371Z,69.82
2022-12-26T17:08:17.770Z,70.77
2022-12-26T17:10:49.129Z,69.96
2022-12-26T17:13:22.306Z,68.70
2022-12-26T17:15:53.723Z,68.32
2022-12-26T17:18:39.175Z,67.55
2022-12-26T17:21:24.791Z,67.54
2022-12-26T17:24:03.441Z,66.39
2022-12-26T17:26:30.307Z,64.98
2022-12-26T17:28:57.058Z,64.52
2022-12-26T17:31:29.023Z,65.75
2022-12-26T17:33:59.201Z,64.86
2022-12-26T17:39:21.698Z,66.17
2022-12-26T17:41:52.857Z,70.35
2022-12-26T17:44:35.925Z,69.33
2022-12-26T17:47:07.311Z,69.57
2022-12-26T17:49:34.205Z,67.75
2022-12-26T17:52:02.115Z,67.90
2022-12-26T17:54:28.939Z,67.96
2022-12-26T17:56:55.583Z,66.33
2022-12-26T17:59:22.065Z,64.39
2022-12-26T18:01:48.876Z,66.25
2022-12-26T18:04:15.634Z,63.75
2022-12-26T18:06:42.351Z,64.86
2022-12-26T18:09:13.152Z,65.60
2022-12-26T18:11:39.641Z,65.05
2022-12-26T18:14:06.513Z,64.43
2022-12-26T18:16:33.844Z,64.27
2022-12-26T18:19:01.568Z,62.97
2022-12-26T18:21:28.153Z,65.23
2022-12-26T18:23:55.594Z,65.73
2022-12-26T18:26:29.102Z,65.64
2022-12-26T18:28:56.087Z,64.44
2022-12-26T18:31:22.975Z,64.49
2022-12-26T18:33:49.961Z,64.72
2022-12-26T18:36:17.660Z,64.59
2022-12-26T18:38:48.643Z,64.67
2022-12-26T18:41:17.150Z,65.05
2022-12-26T18:43:43.739Z,66.06
2022-12-26T18:46:20.664Z,65.93
2022-12-26T18:48:47.743Z,65.25
2022-12-26T18:51:14.421Z,65.91
2022-12-26T18:53:41.227Z,65.72
2022-12-26T18:56:11.095Z,66.47
2022-12-26T18:58:37.853Z,67.91
2022-12-26T19:01:04.779Z,69.34
2022-12-26T19:03:33.501Z,67.33
2022-12-26T19:05:59.944Z,67.32
2022-12-26T19:08:26.307Z,66.15
2022-12-26T19:10:52.602Z,68.29
2022-12-26T19:13:19.357Z,67.04
2022-12-26T19:15:47.130Z,66.46
2022-12-26T19:18:13.746Z,66.73
2022-12-26T19:20:44.091Z,67.22
2022-12-26T19:23:11.578Z,67.41
2022-12-26T19:25:38.231Z,67.52
2022-12-26T19:28:04.764Z,67.34
2022-12-26T19:30:38.551Z,68.32
2022-12-26T19:33:05.703Z,68.38
2022-12-26T19:35:32.253Z,67.18
2022-12-26T19:37:58.817Z,65.76
2022-12-26T19:40:25.997Z,65.76
2022-12-26T19:42:52.740Z,67.69
2022-12-26T19:45:19.411Z,68.98
2022-12-26T19:47:46.284Z,67.07
2022-12-26T19:50:13.146Z,65.95
2022-12-26T19:52:41.580Z,66.63
2022-12-26T19:55:09.222Z,65.55
2022-12-26T19:57:35.988Z,64.33
2022-12-26T20:00:03.611Z,65.93
2022-12-26T20:02:30.520Z,66.15
2022-12-26T20:04:57.432Z,66.72
2022-12-26T20:07:23.791Z,67.26
2022-12-26T20:09:52.722Z,68.12
2022-12-26T20:12:22.064Z,65.84
2022-12-26T20:14:51.445Z,66.78
2022-12-26T20:17:21.919Z,67.26
2022-12-26T20:19:50.190Z,66.89
2022-12-26T20:22:21.456Z,66.07
2022-12-26T20:24:54.009Z,67.35
2022-12-26T20:27:23.496Z,68.16
2022-12-26T20:29:50.433Z,67.27
2022-12-26T20:32:16.844Z,65.96
2022-12-26T20:34:43.241Z,67.13
2022-12-26T20:37:09.755Z,66.21
2022-12-26T20:39:36.671Z,66.31
2022-12-26T20:42:03.082Z,66.94
2022-12-26T20:44:29.502Z,67.62
2022-12-26T20:46:55.893Z,68.12
2022-12-26T20:49:22.706Z,68.65
2022-12-26T20:52:03.729Z,66.26
2022-12-26T20:54:30.101Z,67.61
2022-12-26T20:56:57.606Z,66.98
2022-12-26T20:59:25.289Z,66.98
2022-12-26T21:01:53.178Z,68.57
2022-12-26T21:04:20.729Z,69.41
2022-12-26T21:06:50.360Z,68.02
2022-12-26T21:09:16.843Z,67.40
2022-12-26T21:11:45.304Z,68.33
2022-12-26T21:14:16.507Z,66.11
2022-12-26T21:16:53.386Z,66.23
2022-12-26T21:19:20.989Z,66.10
2022-12-26T21:21:48.965Z,67.62
2022-12-26T21:24:27.153Z,67.93
2022-12-26T21:26:54.944Z,66.20
2022-12-26T21:29:26.220Z,67.07
2022-12-26T21:31:53.996Z,69.69
2022-12-26T21:34:21.944Z,69.76
2022-12-26T21:37:08.244Z,68.31
2022-12-26T21:39:36.169Z,70.38
2022-12-26T21:42:05.080Z,68.30
2022-12-26T21:44:31.466Z,68.62
2022-12-26T21:46:57.998Z,68.78
2022-12-26T21:49:24.480Z,69.40
2022-12-26T21:51:51.077Z,69.44
2022-12-26T21:54:36.148Z,69.55
2022-12-26T21:57:02.794Z,69.03
2022-12-26T21:59:48.120Z,69.94
2022-12-26T22:02:33.504Z,69.34
2022-12-26T22:05:00.947Z,70.81
2022-12-26T22:07:27.953Z,70.04
2022-12-26T22:09:54.360Z,66.92
2022-12-26T22:12:39.275Z,65.74
2022-12-26T22:15:06.331Z,67.66
2022-12-26T22:17:32.976Z,69.76
2022-12-26T22:19:59.310Z,66.10
2022-12-26T22:22:25.692Z,67.12
2022-12-26T22:24:52.125Z,69.90
2022-12-26T22:27:18.665Z,70.04
2022-12-26T22:29:45.110Z,68.09
2022-12-26T22:32:11.476Z,67.00
2022-12-26T22:34:37.879Z,68.12
2022-12-26T22:37:04.725Z,67.88
2022-12-26T22:39:31.395Z,66.43
2022-12-26T22:42:02.290Z,67.27
2022-12-26T22:44:28.988Z,68.43
2022-12-26T22:46:57.039Z,66.47
2022-12-26T22:49:23.471Z,66.67
2022-12-26T22:51:49.947Z,67.77
2022-12-26T22:54:16.278Z,69.67
2022-12-26T22:56:43.058Z,69.88
2022-12-26T22:59:10.631Z,71.09
2022-12-26T23:01:37.059Z,67.98
2022-12-26T23:04:03.620Z,67.65
2022-12-26T23:06:31.921Z,67.79
2022-12-26T23:08:59.404Z,67.98
2022-12-26T23:11:32.182Z,68.09
2022-12-26T23:14:03.472Z,69.20
2022-12-26T23:16:39.092Z,70.95
2022-12-26T23:19:43.119Z,72.80
2022-12-26T23:22:09.992Z,71.86
2022-12-26T23:24:36.895Z,71.91
2022-12-26T23:27:26.323Z,69.43
2022-12-26T23:30:12.594Z,71.62
2022-12-26T23:32:40.685Z,71.38
2022-12-26T23:35:08.066Z,70.78
2022-12-26T23:37:34.396Z,70.90
2022-12-26T23:40:01.293Z,70.28
2022-12-26T23:42:27.589Z,70.16
2022-12-26T23:44:53.956Z,71.54
2022-12-26T23:47:20.386Z,71.03
2022-12-26T23:49:46.855Z,70.73
2022-12-26T23:52:13.296Z,71.10
2022-12-26T23:54:39.763Z,70.44
2022-12-26T23:57:06.376Z,73.85
2022-12-26T23:59:32.765Z,72.40
